sensor_id;sensor_type;location;lat;lon;timestamp;P1;durP1;ratioP1;P2;durP2;ratioP2
6852;SDS011;3465;42.144;24.722;2022-10-18T00:01:45;16.40;;;8.10;;
6852;SDS011;3465;42.144;24.722;2022-10-18T00:04:11;16.27;;;8.20;;
6852;SDS011;3465;42.144;24.722;2022-10-18T00:06:36;15.33;;;8.53;;
6852;SDS011;3465;42.144;24.722;2022-10-18T00:09:02;14.70;;;8.20;;
6852;SDS011;3465;42.144;24.722;2022-10-18T00:11:28;20.93;;;8.30;;
6852;SDS011;3465;42.144;24.722;2022-10-18T00:13:54;17.67;;;9.20;;
6852;SDS011;3465;42.144;24.722;2022-10-18T00:16:20;15.27;;;8.63;;
6852;SDS011;3465;42.144;24.722;2022-10-18T00:18:45;13.90;;;8.53;;
6852;SDS011;3465;42.144;24.722;2022-10-18T00:21:13;16.60;;;8.57;;
6852;SDS011;3465;42.144;24.722;2022-10-18T00:23:40;17.17;;;8.37;;
6852;SDS011;3465;42.144;24.722;2022-10-18T00:26:10;15.80;;;8.67;;
6852;SDS011;3465;42.144;24.722;2022-10-18T00:28:41;21.30;;;9.10;;
6852;SDS011;3465;42.144;24.722;2022-10-18T00:31:08;20.07;;;9.00;;
6852;SDS011;3465;42.144;24.722;2022-10-18T00:33:45;14.67;;;8.17;;
6852;SDS011;3465;42.144;24.722;2022-10-18T00:36:13;16.43;;;8.80;;
6852;SDS011;3465;42.144;24.722;2022-10-18T00:38:39;15.47;;;8.63;;
6852;SDS011;3465;42.144;24.722;2022-10-18T00:41:06;12.60;;;7.90;;
6852;SDS011;3465;42.144;24.722;2022-10-18T00:43:49;18.30;;;8.20;;
6852;SDS011;3465;42.144;24.722;2022-10-18T00:46:35;17.53;;;8.27;;
6852;SDS011;3465;42.144;24.722;2022-10-18T00:49:13;16.37;;;8.33;;
6852;SDS011;3465;42.144;24.722;2022-10-18T00:51:58;12.33;;;8.47;;
6852;SDS011;3465;42.144;24.722;2022-10-18T00:54:28;14.43;;;8.47;;
6852;SDS011;3465;42.144;24.722;2022-10-18T00:56:56;18.03;;;9.70;;
6852;SDS011;3465;42.144;24.722;2022-10-18T00:59:21;15.70;;;8.47;;
6852;SDS011;3465;42.144;24.722;2022-10-18T01:01:50;15.33;;;9.37;;
6852;SDS011;3465;42.144;24.722;2022-10-18T01:04:17;12.03;;;8.30;;
6852;SDS011;3465;42.144;24.722;2022-10-18T01:09:38;15.80;;;8.70;;
6852;SDS011;3465;42.144;24.722;2022-10-18T01:12:27;13.47;;;8.97;;
6852;SDS011;3465;42.144;24.722;2022-10-18T01:15:03;18.17;;;9.40;;
6852;SDS011;3465;42.144;24.722;2022-10-18T01:23:16;17.70;;;9.33;;
6852;SDS011;3465;42.144;24.722;2022-10-18T01:25:56;17.27;;;9.37;;
6852;SDS011;3465;42.144;24.722;2022-10-18T01:31:17;20.10;;;8.90;;
6852;SDS011;3465;42.144;24.722;2022-10-18T01:33:58;17.33;;;9.37;;
6852;SDS011;3465;42.144;24.722;2022-10-18T01:36:31;22.77;;;9.03;;
6852;SDS011;3465;42.144;24.722;2022-10-18T01:39:04;14.17;;;8.80;;
6852;SDS011;3465;42.144;24.722;2022-10-18T01:41:33;22.70;;;8.70;;
6852;SDS011;3465;42.144;24.722;2022-10-18T01:44:03;17.80;;;9.40;;
6852;SDS011;3465;42.144;24.722;2022-10-18T01:46:35;15.27;;;8.63;;
6852;SDS011;3465;42.144;24.722;2022-10-18T01:49:02;19.07;;;8.60;;
6852;SDS011;3465;42.144;24.722;2022-10-18T01:51:29;13.83;;;8.50;;
6852;SDS011;3465;42.144;24.722;2022-10-18T01:53:56;19.87;;;8.67;;
6852;SDS011;3465;42.144;24.722;2022-10-18T02:10:53;14.67;;;8.23;;
6852;SDS011;3465;42.144;24.722;2022-10-18T02:13:23;15.93;;;8.07;;
6852;SDS011;3465;42.144;24.722;2022-10-18T02:15:54;13.30;;;7.83;;
6852;SDS011;3465;42.144;24.722;2022-10-18T02:18:28;13.67;;;8.43;;
6852;SDS011;3465;42.144;24.722;2022-10-18T02:20:59;11.67;;;7.73;;
6852;SDS011;3465;42.144;24.722;2022-10-18T02:23:27;13.40;;;7.73;;
6852;SDS011;3465;42.144;24.722;2022-10-18T02:25:52;15.77;;;7.77;;
6852;SDS011;3465;42.144;24.722;2022-10-18T02:28:19;19.90;;;8.63;;
6852;SDS011;3465;42.144;24.722;2022-10-18T02:36:41;14.97;;;8.30;;
6852;SDS011;3465;42.144;24.722;2022-10-18T02:39:11;13.07;;;7.67;;
6852;SDS011;3465;42.144;24.722;2022-10-18T02:41:41;16.43;;;8.27;;
6852;SDS011;3465;42.144;24.722;2022-10-18T02:44:07;13.77;;;8.30;;
6852;SDS011;3465;42.144;24.722;2022-10-18T02:46:33;16.47;;;8.20;;
6852;SDS011;3465;42.144;24.722;2022-10-18T02:48:59;16.23;;;8.40;;
6852;SDS011;3465;42.144;24.722;2022-10-18T02:51:24;15.97;;;8.37;;
6852;SDS011;3465;42.144;24.722;2022-10-18T02:53:50;16.07;;;8.57;;
6852;SDS011;3465;42.144;24.722;2022-10-18T02:56:15;14.63;;;8.57;;
6852;SDS011;3465;42.144;24.722;2022-10-18T02:58:41;15.90;;;7.77;;
6852;SDS011;3465;42.144;24.722;2022-10-18T03:01:06;15.27;;;7.90;;
6852;SDS011;3465;42.144;24.722;2022-10-18T03:03:32;14.40;;;7.80;;
6852;SDS011;3465;42.144;24.722;2022-10-18T03:05:57;13.87;;;7.60;;
6852;SDS011;3465;42.144;24.722;2022-10-18T03:08:22;17.47;;;8.63;;
6852;SDS011;3465;42.144;24.722;2022-10-18T03:10:48;10.77;;;7.30;;
6852;SDS011;3465;42.144;24.722;2022-10-18T03:13:13;14.93;;;7.40;;
6852;SDS011;3465;42.144;24.722;2022-10-18T03:15:39;14.30;;;8.10;;
6852;SDS011;3465;42.144;24.722;2022-10-18T03:18:04;19.03;;;8.43;;
6852;SDS011;3465;42.144;24.722;2022-10-18T03:20:30;15.80;;;7.40;;
6852;SDS011;3465;42.144;24.722;2022-10-18T03:22:55;13.97;;;6.97;;
6852;SDS011;3465;42.144;24.722;2022-10-18T03:25:21;13.93;;;7.13;;
6852;SDS011;3465;42.144;24.722;2022-10-18T03:27:46;12.63;;;7.13;;
6852;SDS011;3465;42.144;24.722;2022-10-18T03:30:12;12.20;;;7.67;;
6852;SDS011;3465;42.144;24.722;2022-10-18T03:32:38;15.73;;;7.53;;
6852;SDS011;3465;42.144;24.722;2022-10-18T03:35:04;14.70;;;7.80;;
6852;SDS011;3465;42.144;24.722;2022-10-18T03:37:30;13.70;;;7.30;;
6852;SDS011;3465;42.144;24.722;2022-10-18T03:39:55;14.13;;;7.87;;
6852;SDS011;3465;42.144;24.722;2022-10-18T03:42:21;13.67;;;7.20;;
6852;SDS011;3465;42.144;24.722;2022-10-18T03:44:49;11.33;;;7.13;;
6852;SDS011;3465;42.144;24.722;2022-10-18T03:47:14;14.10;;;7.03;;
6852;SDS011;3465;42.144;24.722;2022-10-18T03:49:40;11.30;;;7.53;;
6852;SDS011;3465;42.144;24.722;2022-10-18T03:52:05;15.77;;;7.70;;
6852;SDS011;3465;42.144;24.722;2022-10-18T03:54:30;15.30;;;7.33;;
6852;SDS011;3465;42.144;24.722;2022-10-18T03:56:56;15.83;;;8.20;;
6852;SDS011;3465;42.144;24.722;2022-10-18T03:59:21;19.97;;;10.23;;
6852;SDS011;3465;42.144;24.722;2022-10-18T04:01:47;22.60;;;8.73;;
6852;SDS011;3465;42.144;24.722;2022-10-18T04:04:13;15.37;;;7.37;;
6852;SDS011;3465;42.144;24.722;2022-10-18T04:06:38;17.07;;;8.83;;
6852;SDS011;3465;42.144;24.722;2022-10-18T04:09:04;15.90;;;8.40;;
6852;SDS011;3465;42.144;24.722;2022-10-18T04:11:29;14.67;;;8.33;;
6852;SDS011;3465;42.144;24.722;2022-10-18T04:13:55;13.33;;;7.33;;
6852;SDS011;3465;42.144;24.722;2022-10-18T04:16:20;16.77;;;8.10;;
6852;SDS011;3465;42.144;24.722;2022-10-18T04:18:46;15.60;;;8.00;;
6852;SDS011;3465;42.144;24.722;2022-10-18T04:21:11;13.87;;;7.47;;
6852;SDS011;3465;42.144;24.722;2022-10-18T04:23:37;14.53;;;7.63;;
6852;SDS011;3465;42.144;24.722;2022-10-18T04:26:02;16.60;;;7.80;;
6852;SDS011;3465;42.144;24.722;2022-10-18T04:28:27;11.93;;;7.50;;
6852;SDS011;3465;42.144;24.722;2022-10-18T04:30:53;14.93;;;8.40;;
6852;SDS011;3465;42.144;24.722;2022-10-18T04:33:19;17.13;;;8.87;;
6852;SDS011;3465;42.144;24.722;2022-10-18T04:35:45;23.63;;;9.37;;
6852;SDS011;3465;42.144;24.722;2022-10-18T04:38:11;16.97;;;8.80;;
6852;SDS011;3465;42.144;24.722;2022-10-18T04:40:38;22.73;;;8.47;;
6852;SDS011;3465;42.144;24.722;2022-10-18T04:43:03;22.03;;;8.67;;
6852;SDS011;3465;42.144;24.722;2022-10-18T04:45:29;18.13;;;9.73;;
6852;SDS011;3465;42.144;24.722;2022-10-18T04:47:54;20.90;;;9.17;;
6852;SDS011;3465;42.144;24.722;2022-10-18T04:50:20;15.03;;;8.77;;
6852;SDS011;3465;42.144;24.722;2022-10-18T04:52:45;20.50;;;8.50;;
6852;SDS011;3465;42.144;24.722;2022-10-18T04:55:10;21.27;;;8.77;;
6852;SDS011;3465;42.144;24.722;2022-10-18T04:57:36;14.17;;;8.37;;
6852;SDS011;3465;42.144;24.722;2022-10-18T05:00:02;13.40;;;7.70;;
6852;SDS011;3465;42.144;24.722;2022-10-18T05:02:28;15.47;;;8.47;;
6852;SDS011;3465;42.144;24.722;2022-10-18T05:04:53;15.63;;;8.13;;
6852;SDS011;3465;42.144;24.722;2022-10-18T05:07:18;14.43;;;7.83;;
6852;SDS011;3465;42.144;24.722;2022-10-18T05:09:44;17.73;;;8.70;;
6852;SDS011;3465;42.144;24.722;2022-10-18T05:12:09;17.83;;;9.07;;
6852;SDS011;3465;42.144;24.722;2022-10-18T05:14:35;15.13;;;7.97;;
6852;SDS011;3465;42.144;24.722;2022-10-18T05:17:00;14.37;;;8.13;;
6852;SDS011;3465;42.144;24.722;2022-10-18T05:19:25;14.50;;;8.30;;
6852;SDS011;3465;42.144;24.722;2022-10-18T05:21:51;18.27;;;7.87;;
6852;SDS011;3465;42.144;24.722;2022-10-18T05:24:16;16.77;;;8.00;;
6852;SDS011;3465;42.144;24.722;2022-10-18T05:26:42;11.83;;;6.73;;
6852;SDS011;3465;42.144;24.722;2022-10-18T05:29:07;14.13;;;7.70;;
6852;SDS011;3465;42.144;24.722;2022-10-18T05:31:33;22.23;;;6.43;;
6852;SDS011;3465;42.144;24.722;2022-10-18T05:33:58;12.03;;;6.90;;
6852;SDS011;3465;42.144;24.722;2022-10-18T05:36:25;17.60;;;7.57;;
6852;SDS011;3465;42.144;24.722;2022-10-18T05:38:51;10.23;;;6.73;;
6852;SDS011;3465;42.144;24.722;2022-10-18T05:41:17;23.70;;;7.07;;
6852;SDS011;3465;42.144;24.722;2022-10-18T05:43:43;19.07;;;6.73;;
6852;SDS011;3465;42.144;24.722;2022-10-18T05:46:08;14.43;;;6.00;;
6852;SDS011;3465;42.144;24.722;2022-10-18T05:48:34;18.80;;;6.90;;
6852;SDS011;3465;42.144;24.722;2022-10-18T05:51:00;9.70;;;7.17;;
6852;SDS011;3465;42.144;24.722;2022-10-18T05:53:26;15.40;;;7.40;;
6852;SDS011;3465;42.144;24.722;2022-10-18T05:55:52;12.25;;;7.05;;
6852;SDS011;3465;42.144;24.722;2022-10-18T05:58:18;13.32;;;7.13;;
6852;SDS011;3465;42.144;24.722;2022-10-18T06:00:43;15.93;;;7.32;;
6852;SDS011;3465;42.144;24.722;2022-10-18T06:03:09;13.70;;;6.55;;
6852;SDS011;3465;42.144;24.722;2022-10-18T06:05:34;13.25;;;7.15;;
6852;SDS011;3465;42.144;24.722;2022-10-18T06:08:00;11.63;;;6.15;;
6852;SDS011;3465;42.144;24.722;2022-10-18T06:10:25;13.93;;;6.20;;
6852;SDS011;3465;42.144;24.722;2022-10-18T06:12:50;15.75;;;7.28;;
6852;SDS011;3465;42.144;24.722;2022-10-18T06:15:16;15.90;;;5.93;;
6852;SDS011;3465;42.144;24.722;2022-10-18T06:17:41;12.57;;;6.47;;
6852;SDS011;3465;42.144;24.722;2022-10-18T06:20:07;13.75;;;6.25;;
6852;SDS011;3465;42.144;24.722;2022-10-18T06:22:33;12.50;;;6.68;;
6852;SDS011;3465;42.144;24.722;2022-10-18T06:24:58;12.40;;;6.47;;
6852;SDS011;3465;42.144;24.722;2022-10-18T06:27:24;10.40;;;5.85;;
6852;SDS011;3465;42.144;24.722;2022-10-18T06:29:49;11.55;;;6.30;;
6852;SDS011;3465;42.144;24.722;2022-10-18T06:32:14;12.10;;;6.20;;
6852;SDS011;3465;42.144;24.722;2022-10-18T06:34:40;18.77;;;6.32;;
6852;SDS011;3465;42.144;24.722;2022-10-18T06:37:05;14.02;;;6.40;;
6852;SDS011;3465;42.144;24.722;2022-10-18T06:39:32;12.43;;;6.32;;
6852;SDS011;3465;42.144;24.722;2022-10-18T06:41:57;15.18;;;5.97;;
6852;SDS011;3465;42.144;24.722;2022-10-18T06:44:23;12.73;;;5.25;;
6852;SDS011;3465;42.144;24.722;2022-10-18T06:46:48;10.13;;;5.25;;
6852;SDS011;3465;42.144;24.722;2022-10-18T06:49:14;13.48;;;5.50;;
6852;SDS011;3465;42.144;24.722;2022-10-18T06:51:40;14.23;;;5.57;;
6852;SDS011;3465;42.144;24.722;2022-10-18T06:54:07;11.02;;;5.60;;
6852;SDS011;3465;42.144;24.722;2022-10-18T06:56:34;12.48;;;5.68;;
6852;SDS011;3465;42.144;24.722;2022-10-18T06:58:59;11.85;;;5.50;;
6852;SDS011;3465;42.144;24.722;2022-10-18T07:01:25;14.07;;;5.63;;
6852;SDS011;3465;42.144;24.722;2022-10-18T07:03:52;10.13;;;5.53;;
6852;SDS011;3465;42.144;24.722;2022-10-18T07:06:18;15.30;;;5.28;;
6852;SDS011;3465;42.144;24.722;2022-10-18T07:08:45;10.18;;;5.03;;
6852;SDS011;3465;42.144;24.722;2022-10-18T07:11:19;10.68;;;5.05;;
6852;SDS011;3465;42.144;24.722;2022-10-18T07:13:48;6.13;;;4.70;;
6852;SDS011;3465;42.144;24.722;2022-10-18T07:16:14;11.20;;;5.60;;
6852;SDS011;3465;42.144;24.722;2022-10-18T07:18:43;8.95;;;5.15;;
6852;SDS011;3465;42.144;24.722;2022-10-18T07:21:17;14.85;;;5.82;;
6852;SDS011;3465;42.144;24.722;2022-10-18T07:23:44;8.63;;;4.90;;
6852;SDS011;3465;42.144;24.722;2022-10-18T07:26:14;15.00;;;5.13;;
6852;SDS011;3465;42.144;24.722;2022-10-18T07:28:45;13.65;;;4.78;;
6852;SDS011;3465;42.144;24.722;2022-10-18T07:31:12;24.33;;;5.90;;
6852;SDS011;3465;42.144;24.722;2022-10-18T07:33:38;9.48;;;4.65;;
6852;SDS011;3465;42.144;24.722;2022-10-18T07:36:05;11.60;;;4.65;;
6852;SDS011;3465;42.144;24.722;2022-10-18T07:38:32;10.27;;;4.60;;
6852;SDS011;3465;42.144;24.722;2022-10-18T07:40:59;12.25;;;4.63;;
6852;SDS011;3465;42.144;24.722;2022-10-18T07:43:26;12.13;;;4.25;;
6852;SDS011;3465;42.144;24.722;2022-10-18T07:45:56;8.07;;;4.55;;
6852;SDS011;3465;42.144;24.722;2022-10-18T07:48:24;11.10;;;4.82;;
6852;SDS011;3465;42.144;24.722;2022-10-18T07:50:49;9.48;;;4.38;;
6852;SDS011;3465;42.144;24.722;2022-10-18T07:53:15;13.55;;;4.60;;
6852;SDS011;3465;42.144;24.722;2022-10-18T07:55:40;8.00;;;3.97;;
6852;SDS011;3465;42.144;24.722;2022-10-18T07:58:06;11.77;;;4.00;;
6852;SDS011;3465;42.144;24.722;2022-10-18T08:00:31;9.50;;;3.95;;
6852;SDS011;3465;42.144;24.722;2022-10-18T08:03:00;10.55;;;4.35;;
6852;SDS011;3465;42.144;24.722;2022-10-18T08:05:26;10.32;;;4.30;;
6852;SDS011;3465;42.144;24.722;2022-10-18T08:07:55;9.95;;;4.15;;
6852;SDS011;3465;42.144;24.722;2022-10-18T08:10:21;8.00;;;4.07;;
6852;SDS011;3465;42.144;24.722;2022-10-18T08:12:48;11.30;;;3.95;;
6852;SDS011;3465;42.144;24.722;2022-10-18T08:15:14;11.75;;;4.20;;
6852;SDS011;3465;42.144;24.722;2022-10-18T08:17:40;7.35;;;3.85;;
6852;SDS011;3465;42.144;24.722;2022-10-18T08:20:07;10.95;;;4.10;;
6852;SDS011;3465;42.144;24.722;2022-10-18T08:22:33;8.63;;;3.53;;
6852;SDS011;3465;42.144;24.722;2022-10-18T08:24:58;6.13;;;4.20;;
6852;SDS011;3465;42.144;24.722;2022-10-18T08:27:24;10.80;;;3.85;;
6852;SDS011;3465;42.144;24.722;2022-10-18T08:29:50;9.50;;;3.58;;
6852;SDS011;3465;42.144;24.722;2022-10-18T08:32:16;15.43;;;3.90;;
6852;SDS011;3465;42.144;24.722;2022-10-18T08:34:44;10.00;;;4.13;;
6852;SDS011;3465;42.144;24.722;2022-10-18T08:37:09;5.40;;;3.90;;
6852;SDS011;3465;42.144;24.722;2022-10-18T08:39:35;5.88;;;3.63;;
6852;SDS011;3465;42.144;24.722;2022-10-18T08:44:32;13.70;;;4.00;;
6852;SDS011;3465;42.144;24.722;2022-10-18T08:47:04;10.20;;;4.38;;
6852;SDS011;3465;42.144;24.722;2022-10-18T08:49:40;14.70;;;4.38;;
6852;SDS011;3465;42.144;24.722;2022-10-18T08:52:18;12.95;;;4.18;;
6852;SDS011;3465;42.144;24.722;2022-10-18T08:55:01;6.45;;;3.85;;
6852;SDS011;3465;42.144;24.722;2022-10-18T08:57:32;8.98;;;4.43;;
6852;SDS011;3465;42.144;24.722;2022-10-18T08:59:58;7.38;;;4.10;;
6852;SDS011;3465;42.144;24.722;2022-10-18T09:07:51;12.23;;;4.57;;
6852;SDS011;3465;42.144;24.722;2022-10-18T09:19:16;13.00;;;4.10;;
6852;SDS011;3465;42.144;24.722;2022-10-18T09:21:56;7.03;;;4.05;;
6852;SDS011;3465;42.144;24.722;2022-10-18T09:24:39;7.82;;;3.92;;
6852;SDS011;3465;42.144;24.722;2022-10-18T09:27:16;10.50;;;4.15;;
6852;SDS011;3465;42.144;24.722;2022-10-18T09:30:02;8.98;;;4.28;;
6852;SDS011;3465;42.144;24.722;2022-10-18T09:32:50;13.63;;;4.32;;
6852;SDS011;3465;42.144;24.722;2022-10-18T09:35:29;10.93;;;4.30;;
6852;SDS011;3465;42.144;24.722;2022-10-18T09:38:03;8.63;;;4.53;;
6852;SDS011;3465;42.144;24.722;2022-10-18T09:40:35;13.85;;;3.95;;
6852;SDS011;3465;42.144;24.722;2022-10-18T09:43:13;6.97;;;3.63;;
6852;SDS011;3465;42.144;24.722;2022-10-18T09:46:02;13.32;;;4.18;;
6852;SDS011;3465;42.144;24.722;2022-10-18T09:48:37;12.20;;;4.75;;
6852;SDS011;3465;42.144;24.722;2022-10-18T09:51:19;7.80;;;3.90;;
6852;SDS011;3465;42.144;24.722;2022-10-18T09:59:55;11.25;;;4.75;;
6852;SDS011;3465;42.144;24.722;2022-10-18T10:02:15;9.25;;;3.90;;
6852;SDS011;3465;42.144;24.722;2022-10-18T10:04:42;11.68;;;4.20;;
6852;SDS011;3465;42.144;24.722;2022-10-18T10:07:12;7.43;;;3.88;;
6852;SDS011;3465;42.144;24.722;2022-10-18T10:09:55;11.05;;;4.05;;
6852;SDS011;3465;42.144;24.722;2022-10-18T10:12:24;13.27;;;4.65;;
6852;SDS011;3465;42.144;24.722;2022-10-18T10:14:51;8.30;;;4.25;;
6852;SDS011;3465;42.144;24.722;2022-10-18T10:17:24;9.88;;;4.05;;
6852;SDS011;3465;42.144;24.722;2022-10-18T10:19:55;11.73;;;3.75;;
6852;SDS011;3465;42.144;24.722;2022-10-18T10:22:30;8.55;;;4.15;;
6852;SDS011;3465;42.144;24.722;2022-10-18T10:24:59;10.93;;;4.40;;
6852;SDS011;3465;42.144;24.722;2022-10-18T10:27:31;9.55;;;4.05;;
6852;SDS011;3465;42.144;24.722;2022-10-18T10:30:08;11.43;;;4.10;;
6852;SDS011;3465;42.144;24.722;2022-10-18T10:32:51;8.45;;;4.03;;
6852;SDS011;3465;42.144;24.722;2022-10-18T10:35:20;8.55;;;4.00;;
6852;SDS011;3465;42.144;24.722;2022-10-18T10:37:45;7.40;;;3.92;;
6852;SDS011;3465;42.144;24.722;2022-10-18T10:40:25;11.90;;;4.00;;
6852;SDS011;3465;42.144;24.722;2022-10-18T10:46:21;10.25;;;4.60;;
6852;SDS011;3465;42.144;24.722;2022-10-18T10:51:10;11.18;;;4.35;;
6852;SDS011;3465;42.144;24.722;2022-10-18T10:56:29;9.13;;;3.53;;
6852;SDS011;3465;42.144;24.722;2022-10-18T10:58:54;9.23;;;3.75;;
6852;SDS011;3465;42.144;24.722;2022-10-18T11:01:32;14.80;;;4.20;;
6852;SDS011;3465;42.144;24.722;2022-10-18T11:04:39;8.02;;;3.90;;
6852;SDS011;3465;42.144;24.722;2022-10-18T11:12:12;5.85;;;3.20;;
6852;SDS011;3465;42.144;24.722;2022-10-18T11:14:42;6.00;;;2.90;;
6852;SDS011;3465;42.144;24.722;2022-10-18T11:17:28;4.65;;;2.92;;
6852;SDS011;3465;42.144;24.722;2022-10-18T11:22:35;4.20;;;2.65;;
6852;SDS011;3465;42.144;24.722;2022-10-18T11:25:08;5.13;;;2.63;;
6852;SDS011;3465;42.144;24.722;2022-10-18T11:27:40;4.40;;;2.60;;
6852;SDS011;3465;42.144;24.722;2022-10-18T11:35:57;4.65;;;2.30;;
6852;SDS011;3465;42.144;24.722;2022-10-18T11:43:58;8.02;;;2.70;;
6852;SDS011;3465;42.144;24.722;2022-10-18T12:02:55;7.90;;;2.60;;
6852;SDS011;3465;42.144;24.722;2022-10-18T12:05:46;8.25;;;2.70;;
6852;SDS011;3465;42.144;24.722;2022-10-18T12:08:15;3.85;;;2.15;;
6852;SDS011;3465;42.144;24.722;2022-10-18T12:10:55;5.15;;;2.58;;
6852;SDS011;3465;42.144;24.722;2022-10-18T12:13:35;5.22;;;2.40;;
6852;SDS011;3465;42.144;24.722;2022-10-18T12:16:07;6.00;;;2.95;;
6852;SDS011;3465;42.144;24.722;2022-10-18T12:18:34;6.78;;;2.53;;
6852;SDS011;3465;42.144;24.722;2022-10-18T12:21:05;5.57;;;2.42;;
6852;SDS011;3465;42.144;24.722;2022-10-18T12:23:41;9.50;;;2.80;;
6852;SDS011;3465;42.144;24.722;2022-10-18T12:26:15;3.03;;;2.50;;
6852;SDS011;3465;42.144;24.722;2022-10-18T12:31:58;4.53;;;2.63;;
6852;SDS011;3465;42.144;24.722;2022-10-18T12:39:15;5.18;;;2.78;;
6852;SDS011;3465;42.144;24.722;2022-10-18T12:41:47;9.13;;;3.15;;
6852;SDS011;3465;42.144;24.722;2022-10-18T12:46:53;5.40;;;3.00;;
6852;SDS011;3465;42.144;24.722;2022-10-18T12:49:23;7.72;;;3.00;;
6852;SDS011;3465;42.144;24.722;2022-10-18T12:52:00;6.25;;;3.30;;
6852;SDS011;3465;42.144;24.722;2022-10-18T12:54:29;5.25;;;2.97;;
6852;SDS011;3465;42.144;24.722;2022-10-18T12:56:57;7.68;;;2.88;;
6852;SDS011;3465;42.144;24.722;2022-10-18T13:09:35;6.68;;;2.70;;
6852;SDS011;3465;42.144;24.722;2022-10-18T13:33:50;4.28;;;2.58;;
6852;SDS011;3465;42.144;24.722;2022-10-18T13:41:29;14.40;;;2.70;;
6852;SDS011;3465;42.144;24.722;2022-10-18T14:07:25;7.70;;;3.40;;
6852;SDS011;3465;42.144;24.722;2022-10-18T14:09:54;7.57;;;3.75;;
6852;SDS011;3465;42.144;24.722;2022-10-18T14:15:01;10.15;;;4.70;;
6852;SDS011;3465;42.144;24.722;2022-10-18T14:22:55;9.10;;;4.70;;
6852;SDS011;3465;42.144;24.722;2022-10-18T14:25:41;12.15;;;5.38;;
6852;SDS011;3465;42.144;24.722;2022-10-18T14:28:16;11.15;;;6.18;;
6852;SDS011;3465;42.144;24.722;2022-10-18T14:30:55;12.10;;;6.53;;
6852;SDS011;3465;42.144;24.722;2022-10-18T14:43:47;10.95;;;5.53;;
6852;SDS011;3465;42.144;24.722;2022-10-18T14:46:16;10.50;;;5.80;;
6852;SDS011;3465;42.144;24.722;2022-10-18T14:48:55;18.15;;;5.85;;
6852;SDS011;3465;42.144;24.722;2022-10-18T14:51:27;11.32;;;5.68;;
6852;SDS011;3465;42.144;24.722;2022-10-18T14:53:56;9.98;;;5.53;;
6852;SDS011;3465;42.144;24.722;2022-10-18T14:56:26;13.23;;;6.10;;
6852;SDS011;3465;42.144;24.722;2022-10-18T14:58:55;13.60;;;5.78;;
6852;SDS011;3465;42.144;24.722;2022-10-18T15:01:24;10.90;;;5.70;;
6852;SDS011;3465;42.144;24.722;2022-10-18T15:03:57;12.52;;;6.03;;
6852;SDS011;3465;42.144;24.722;2022-10-18T15:06:27;9.85;;;6.55;;
6852;SDS011;3465;42.144;24.722;2022-10-18T15:08:56;10.95;;;6.18;;
6852;SDS011;3465;42.144;24.722;2022-10-18T15:11:23;11.80;;;6.10;;
6852;SDS011;3465;42.144;24.722;2022-10-18T15:14:12;16.13;;;7.15;;
6852;SDS011;3465;42.144;24.722;2022-10-18T15:16:40;10.50;;;6.57;;
6852;SDS011;3465;42.144;24.722;2022-10-18T15:19:52;13.55;;;7.05;;
6852;SDS011;3465;42.144;24.722;2022-10-18T15:21:55;11.63;;;6.35;;
6852;SDS011;3465;42.144;24.722;2022-10-18T15:26:51;16.20;;;7.40;;
6852;SDS011;3465;42.144;24.722;2022-10-18T15:29:20;15.55;;;7.05;;
6852;SDS011;3465;42.144;24.722;2022-10-18T15:31:48;17.52;;;7.72;;
6852;SDS011;3465;42.144;24.722;2022-10-18T15:34:18;20.55;;;8.77;;
6852;SDS011;3465;42.144;24.722;2022-10-18T15:36:47;18.73;;;9.35;;
6852;SDS011;3465;42.144;24.722;2022-10-18T15:39:18;20.52;;;8.45;;
6852;SDS011;3465;42.144;24.722;2022-10-18T15:44:19;32.60;;;14.77;;
6852;SDS011;3465;42.144;24.722;2022-10-18T15:46:46;63.78;;;25.88;;
6852;SDS011;3465;42.144;24.722;2022-10-18T15:49:47;70.97;;;29.73;;
6852;SDS011;3465;42.144;24.722;2022-10-18T15:54:45;66.97;;;30.38;;
6852;SDS011;3465;42.144;24.722;2022-10-18T15:57:11;80.20;;;37.33;;
6852;SDS011;3465;42.144;24.722;2022-10-18T16:02:30;85.18;;;30.98;;
6852;SDS011;3465;42.144;24.722;2022-10-18T16:04:59;65.85;;;28.95;;
6852;SDS011;3465;42.144;24.722;2022-10-18T16:07:26;62.97;;;28.48;;
6852;SDS011;3465;42.144;24.722;2022-10-18T16:09:54;69.33;;;29.33;;
6852;SDS011;3465;42.144;24.722;2022-10-18T16:12:19;62.92;;;29.77;;
6852;SDS011;3465;42.144;24.722;2022-10-18T16:14:45;82.03;;;36.20;;
6852;SDS011;3465;42.144;24.722;2022-10-18T16:17:10;86.00;;;33.93;;
6852;SDS011;3465;42.144;24.722;2022-10-18T16:19:41;63.78;;;27.88;;
6852;SDS011;3465;42.144;24.722;2022-10-18T16:22:09;50.83;;;24.57;;
6852;SDS011;3465;42.144;24.722;2022-10-18T16:24:36;45.15;;;20.58;;
6852;SDS011;3465;42.144;24.722;2022-10-18T16:27:02;35.65;;;18.33;;
6852;SDS011;3465;42.144;24.722;2022-10-18T16:29:27;40.50;;;15.87;;
6852;SDS011;3465;42.144;24.722;2022-10-18T16:31:56;36.70;;;13.30;;
6852;SDS011;3465;42.144;24.722;2022-10-18T16:34:22;20.03;;;10.87;;
6852;SDS011;3465;42.144;24.722;2022-10-18T16:36:50;29.58;;;11.73;;
6852;SDS011;3465;42.144;24.722;2022-10-18T16:39:17;34.83;;;12.80;;
6852;SDS011;3465;42.144;24.722;2022-10-18T16:41:44;33.13;;;14.20;;
6852;SDS011;3465;42.144;24.722;2022-10-18T16:44:10;33.17;;;15.27;;
6852;SDS011;3465;42.144;24.722;2022-10-18T16:46:36;33.03;;;15.37;;
6852;SDS011;3465;42.144;24.722;2022-10-18T16:49:02;34.67;;;13.63;;
6852;SDS011;3465;42.144;24.722;2022-10-18T16:51:27;30.10;;;13.10;;
6852;SDS011;3465;42.144;24.722;2022-10-18T16:53:53;29.30;;;13.90;;
6852;SDS011;3465;42.144;24.722;2022-10-18T16:56:20;28.70;;;14.27;;
6852;SDS011;3465;42.144;24.722;2022-10-18T16:58:48;32.43;;;14.13;;
6852;SDS011;3465;42.144;24.722;2022-10-18T17:01:15;27.03;;;13.33;;
6852;SDS011;3465;42.144;24.722;2022-10-18T17:03:43;34.60;;;14.40;;
6852;SDS011;3465;42.144;24.722;2022-10-18T17:06:27;42.73;;;15.53;;
6852;SDS011;3465;42.144;24.722;2022-10-18T17:08:54;37.90;;;16.90;;
6852;SDS011;3465;42.144;24.722;2022-10-18T17:11:22;49.03;;;17.90;;
6852;SDS011;3465;42.144;24.722;2022-10-18T17:13:48;44.10;;;18.50;;
6852;SDS011;3465;42.144;24.722;2022-10-18T17:18:45;40.33;;;17.87;;
6852;SDS011;3465;42.144;24.722;2022-10-18T17:21:10;46.30;;;17.37;;
6852;SDS011;3465;42.144;24.722;2022-10-18T17:23:35;31.77;;;14.40;;
6852;SDS011;3465;42.144;24.722;2022-10-18T17:26:04;41.53;;;14.80;;
6852;SDS011;3465;42.144;24.722;2022-10-18T17:28:29;29.80;;;13.60;;
6852;SDS011;3465;42.144;24.722;2022-10-18T17:30:55;26.20;;;11.67;;
6852;SDS011;3465;42.144;24.722;2022-10-18T17:33:23;27.70;;;11.47;;
6852;SDS011;3465;42.144;24.722;2022-10-18T17:35:49;34.87;;;10.87;;
6852;SDS011;3465;42.144;24.722;2022-10-18T17:38:14;25.10;;;12.03;;
6852;SDS011;3465;42.144;24.722;2022-10-18T17:40:40;24.13;;;9.73;;
6852;SDS011;3465;42.144;24.722;2022-10-18T17:43:09;26.43;;;9.80;;
6852;SDS011;3465;42.144;24.722;2022-10-18T17:45:37;26.90;;;10.43;;
6852;SDS011;3465;42.144;24.722;2022-10-18T17:48:11;30.70;;;10.77;;
6852;SDS011;3465;42.144;24.722;2022-10-18T17:50:40;30.17;;;11.33;;
6852;SDS011;3465;42.144;24.722;2022-10-18T17:53:06;21.40;;;10.60;;
6852;SDS011;3465;42.144;24.722;2022-10-18T17:55:32;22.27;;;10.47;;
6852;SDS011;3465;42.144;24.722;2022-10-18T17:57:59;29.63;;;10.73;;
6852;SDS011;3465;42.144;24.722;2022-10-18T18:00:24;24.73;;;10.50;;
6852;SDS011;3465;42.144;24.722;2022-10-18T18:02:50;21.13;;;10.13;;
6852;SDS011;3465;42.144;24.722;2022-10-18T18:05:16;28.40;;;10.53;;
6852;SDS011;3465;42.144;24.722;2022-10-18T18:07:41;29.00;;;11.37;;
6852;SDS011;3465;42.144;24.722;2022-10-18T18:10:08;33.20;;;11.13;;
6852;SDS011;3465;42.144;24.722;2022-10-18T18:12:33;22.93;;;9.20;;
6852;SDS011;3465;42.144;24.722;2022-10-18T18:14:59;21.43;;;8.93;;
6852;SDS011;3465;42.144;24.722;2022-10-18T18:17:24;22.00;;;9.87;;
6852;SDS011;3465;42.144;24.722;2022-10-18T18:19:51;19.50;;;8.67;;